Time;durP1;ratioP1;P1;durP2;ratioP2;P2;SDS_P1;SDS_P2;PMS_P1;PMS_P2;Temp;Humidity;BMP_temperature;BMP_pressure;BME280_temperature;BME280_humidity;BME280_pressure;Samples;Min_cycle;Max_cycle;Signal;HPM_P1;HPM_P2
2023/01/26 00:00:51;;;;;;;;;38.50;33.75;;;;;1.38;81.74;102502.78;5051685;28;11537;-65
2023/01/26 00:03:18;;;;;;;;;36.75;30.75;;;;;1.39;81.68;102501.84;5051824;28;11583;-65
2023/01/26 00:05:45;;;;;;;;;49.00;38.00;;;;;1.37;81.16;102502.88;5051405;28;11670;-67
2023/01/26 00:08:12;;;;;;;;;35.75;30.25;;;;;1.36;81.87;102490.56;5044425;28;12266;-64
2023/01/26 00:10:40;;;;;;;;;41.75;36.50;;;;;1.40;81.66;102489.41;5049796;28;11617;-64
2023/01/26 00:13:09;;;;;;;;;48.25;37.50;;;;;1.35;81.66;102487.06;5050313;28;11548;-66
2023/01/26 00:15:35;;;;;;;;;41.50;34.00;;;;;1.34;81.56;102490.66;5040608;28;12349;-65
2023/01/26 00:18:02;;;;;;;;;46.00;37.00;;;;;1.32;81.22;102481.94;5045380;28;11526;-66
2023/01/26 00:20:29;;;;;;;;;41.50;38.50;;;;;1.34;81.30;102477.41;5050122;28;11697;-67
2023/01/26 00:22:55;;;;;;;;;50.75;41.50;;;;;1.33;81.54;102474.81;5051258;28;11633;-66
2023/01/26 00:25:22;;;;;;;;;49.25;41.00;;;;;1.33;81.16;102461.56;5051203;28;11556;-64
2023/01/26 00:27:48;;;;;;;;;44.75;34.25;;;;;1.33;81.86;102465.06;5048590;28;11596;-65
2023/01/26 00:30:15;;;;;;;;;40.00;34.75;;;;;1.36;81.66;102450.75;5048530;28;11981;-65
2023/01/26 00:32:42;;;;;;;;;44.25;32.00;;;;;1.40;81.68;102450.47;5051581;28;11617;-65
2023/01/26 00:35:08;;;;;;;;;48.50;39.75;;;;;1.38;81.24;102463.00;5046469;28;11603;-65
2023/01/26 00:37:35;;;;;;;;;44.50;34.75;;;;;1.39;81.58;102454.06;5047876;28;11632;-63
2023/01/26 00:40:01;;;;;;;;;40.75;32.50;;;;;1.39;81.58;102456.72;5044534;28;11557;-66
2023/01/26 00:42:28;;;;;;;;;47.00;37.50;;;;;1.39;81.53;102455.88;5049574;28;12415;-65
2023/01/26 00:44:55;;;;;;;;;45.25;40.25;;;;;1.33;81.53;102449.13;5048673;28;11566;-63
2023/01/26 00:47:22;;;;;;;;;44.00;31.50;;;;;1.33;81.48;102449.13;5046942;28;11550;-65
2023/01/26 00:49:48;;;;;;;;;41.00;38.50;;;;;1.30;81.83;102445.81;5044445;28;11676;-65
2023/01/26 00:52:15;;;;;;;;;48.50;38.50;;;;;1.24;81.83;102444.41;5050825;28;11541;-65
2023/01/26 00:54:41;;;;;;;;;54.75;44.50;;;;;1.27;81.90;102444.22;5049119;28;11561;-65
2023/01/26 00:57:09;;;;;;;;;51.25;38.50;;;;;1.27;81.91;102449.53;5044875;28;11645;-67
2023/01/26 00:59:35;;;;;;;;;48.75;44.50;;;;;1.27;81.75;102444.22;5046145;28;11556;-65
2023/01/26 01:02:02;;;;;;;;;66.00;45.75;;;;;1.28;81.83;102435.31;5049950;28;11570;-66
2023/01/26 01:04:29;;;;;;;;;48.25;37.00;;;;;1.31;82.05;102443.09;5037027;28;11566;-66
2023/01/26 01:06:58;;;;;;;;;48.75;40.25;;;;;1.32;81.98;102441.28;5049260;28;11538;-64
2023/01/26 01:09:25;;;;;;;;;45.25;37.75;;;;;1.32;82.36;102433.31;5050641;28;11570;-64
2023/01/26 01:11:51;;;;;;;;;48.25;36.50;;;;;1.27;82.20;102433.63;5048963;28;11540;-65
2023/01/26 01:14:18;;;;;;;;;39.00;32.00;;;;;1.32;81.99;102435.97;5044365;28;11572;-66
2023/01/26 01:16:45;;;;;;;;;45.50;40.00;;;;;1.30;82.01;102432.56;5045542;28;12346;-66
2023/01/26 01:19:14;;;;;;;;;46.00;38.00;;;;;1.22;82.05;102435.72;5049709;28;11627;-66
2023/01/26 01:21:42;;;;;;;;;37.50;33.25;;;;;1.28;82.57;102437.13;5050323;28;11551;-67
2023/01/26 01:24:09;;;;;;;;;33.50;30.50;;;;;1.33;82.15;102437.69;5045643;28;11574;-66
2023/01/26 01:26:36;;;;;;;;;41.75;38.50;;;;;1.32;82.27;102446.59;5040493;28;11588;-65
2023/01/26 01:29:02;;;;;;;;;43.00;38.25;;;;;1.32;82.61;102446.59;5048300;28;11561;-65
2023/01/26 01:31:29;;;;;;;;;37.00;30.50;;;;;1.34;82.37;102442.91;5048948;28;11540;-66
2023/01/26 01:33:56;;;;;;;;;44.75;35.75;;;;;1.40;82.41;102444.31;5035813;28;11534;-66
2023/01/26 01:36:24;;;;;;;;;45.50;36.00;;;;;1.41;82.27;102438.91;5047134;28;11641;-65
2023/01/26 01:38:51;;;;;;;;;51.75;33.75;;;;;1.40;82.27;102445.16;5048902;28;11584;-65
2023/01/26 01:41:19;;;;;;;;;50.00;38.50;;;;;1.42;82.29;102442.44;5049662;28;11541;-66
2023/01/26 01:43:46;;;;;;;;;44.00;33.25;;;;;1.45;82.26;102444.88;5046807;28;11537;-66
2023/01/26 01:46:24;;;;;;;;;52.75;37.50;;;;;1.47;82.08;102449.16;5046639;28;11576;-66
2023/01/26 01:49:06;;;;;;;;;46.75;40.25;;;;;1.42;81.83;102448.59;5043898;28;11606;-65
2023/01/26 01:51:42;;;;;;;;;41.75;38.50;;;;;1.37;82.25;102447.16;5048827;28;11681;-66
2023/01/26 01:54:14;;;;;;;;;44.25;35.75;;;;;1.35;82.34;102446.41;5048010;28;11570;-69
2023/01/26 01:56:46;;;;;;;;;50.50;41.00;;;;;1.33;82.36;102442.97;5042750;28;11540;-65
2023/01/26 01:59:13;;;;;;;;;54.50;43.00;;;;;1.35;82.54;102446.41;5049042;28;11549;-64
2023/01/26 02:01:40;;;;;;;;;50.75;43.25;;;;;1.36;82.37;102450.75;5048749;28;11635;-67
2023/01/26 02:04:08;;;;;;;;;44.50;38.00;;;;;1.35;82.25;102449.91;5049688;28;11540;-68
2023/01/26 02:06:47;;;;;;;;;47.50;39.25;;;;;1.38;82.36;102452.38;5042395;28;11548;-65
2023/01/26 02:12:13;;;;;;;;;37.50;36.75;;;;;1.40;82.46;102452.28;5035923;28;11476;-66
2023/01/26 02:14:40;;;;;;;;;45.50;39.50;;;;;1.41;82.33;102451.31;5051818;28;11541;-66
2023/01/26 02:17:08;;;;;;;;;46.50;37.75;;;;;1.40;82.53;102449.63;5047976;28;11668;-66
2023/01/26 02:19:57;;;;;;;;;38.75;33.00;;;;;1.35;82.70;102447.25;5040234;28;11631;-65
2023/01/26 02:22:54;;;;;;;;;48.00;40.00;;;;;1.36;82.40;102441.00;5052265;28;11548;-65
2023/01/26 02:25:27;;;;;;;;;43.00;36.50;;;;;1.39;82.33;102442.63;5010751;28;11547;-65
2023/01/26 02:27:53;;;;;;;;;46.00;37.25;;;;;1.39;82.61;102445.28;5051045;28;11547;-66
2023/01/26 02:30:22;;;;;;;;;43.50;30.00;;;;;1.38;82.74;102451.53;5053463;28;11730;-65
2023/01/26 02:32:49;;;;;;;;;45.00;40.25;;;;;1.36;82.49;102446.31;5048268;28;11545;-66
2023/01/26 02:35:16;;;;;;;;;37.75;30.00;;;;;1.36;82.21;102454.25;5040189;28;11596;-66
2023/01/26 02:37:43;;;;;;;;;47.50;37.75;;;;;1.36;82.93;102438.34;5040278;28;11572;-65
2023/01/26 02:40:23;;;;;;;;;36.50;32.00;;;;;1.34;82.17;102445.56;5032714;28;11551;-65
2023/01/26 02:42:53;;;;;;;;;43.75;30.00;;;;;1.36;82.79;102445.44;5032168;28;12418;-65
2023/01/26 02:45:22;;;;;;;;;44.00;32.75;;;;;1.38;83.04;102447.06;5046835;28;12237;-65
2023/01/26 02:47:49;;;;;;;;;33.00;30.25;;;;;1.39;82.92;102448.78;5044054;28;11617;-67
2023/01/26 02:50:15;;;;;;;;;30.50;26.50;;;;;1.42;82.79;102451.25;5050593;28;11569;-66
2023/01/26 02:52:43;;;;;;;;;41.50;31.50;;;;;1.42;83.26;102445.94;5031912;28;11564;-66
2023/01/26 02:55:23;;;;;;;;;37.75;31.00;;;;;1.43;82.97;102458.25;5031782;28;11671;-65
2023/01/26 02:57:55;;;;;;;;;33.75;28.25;;;;;1.45;82.94;102445.72;5035797;28;11580;-67
2023/01/26 03:00:25;;;;;;;;;34.50;26.00;;;;;1.54;82.77;102449.63;5052139;28;11521;-65
2023/01/26 03:02:55;;;;;;;;;25.25;21.00;;;;;1.57;82.64;102451.22;5042545;28;11546;-66
2023/01/26 03:05:23;;;;;;;;;33.50;31.50;;;;;1.59;82.47;102446.69;5048570;28;11524;-65
2023/01/26 03:07:50;;;;;;;;;28.25;22.00;;;;;1.60;82.72;102445.72;5033134;28;11691;-66
2023/01/26 03:10:19;;;;;;;;;36.00;29.50;;;;;1.61;82.74;102450.94;5048994;28;12289;-65
2023/01/26 03:12:45;;;;;;;;;32.50;26.75;;;;;1.65;82.51;102446.28;5051135;28;11538;-66
2023/01/26 03:29:06;;;;;;;;;34.25;31.75;;;;;1.59;82.31;102460.81;5043225;28;11536;-64
2023/01/26 03:31:32;;;;;;;;;35.00;30.75;;;;;1.56;82.35;102465.44;5050929;28;11561;-65
2023/01/26 03:33:59;;;;;;;;;29.00;28.25;;;;;1.55;82.64;102455.78;5050886;28;12351;-65
2023/01/26 03:36:27;;;;;;;;;27.75;21.25;;;;;1.58;82.88;102459.09;5050908;28;11543;-64
2023/01/26 03:38:53;;;;;;;;;34.75;27.00;;;;;1.62;82.27;102457.09;5043913;28;10982;-64
2023/01/26 03:57:55;;;;;;;;;33.00;25.00;;;;;1.75;82.79;102444.75;5046297;28;11593;-66
2023/01/26 04:00:22;;;;;;;;;29.75;27.50;;;;;1.79;82.73;102450.72;5043496;28;11616;-66
2023/01/26 04:08:40;;;;;;;;;34.25;27.75;;;;;1.70;82.96;102444.19;5039821;28;11590;-66
2023/01/26 04:11:08;;;;;;;;;33.75;31.00;;;;;1.71;83.35;102437.94;5038757;28;11554;-67
2023/01/26 04:22:01;;;;;;;;;29.00;26.00;;;;;1.90;83.40;102440.25;5045246;28;11539;-68
2023/01/26 04:24:30;;;;;;;;;33.25;24.00;;;;;1.93;82.81;102438.25;5040633;28;11526;-65
2023/01/26 04:26:57;;;;;;;;;30.75;27.25;;;;;1.94;82.84;102434.66;5049981;28;11539;-67
2023/01/26 04:29:29;;;;;;;;;27.50;25.75;;;;;1.94;82.44;102439.09;5053088;28;11539;-62
2023/01/26 04:31:55;;;;;;;;;31.75;22.00;;;;;1.96;82.85;102438.06;5044019;28;11544;-65
2023/01/26 04:34:22;;;;;;;;;31.00;24.50;;;;;1.99;82.67;102439.69;5050041;28;11568;-66
2023/01/26 04:36:49;;;;;;;;;33.50;24.75;;;;;2.02;82.97;102441.28;5030873;28;11575;-64
2023/01/26 04:39:17;;;;;;;;;24.50;20.25;;;;;2.02;82.55;102441.28;5042547;28;11566;-65
2023/01/26 04:41:46;;;;;;;;;26.00;21.50;;;;;2.03;82.76;102440.34;5049122;28;11551;-65
2023/01/26 04:44:15;;;;;;;;;21.50;19.00;;;;;2.03;82.56;102433.22;5049471;28;11628;-65
2023/01/26 04:46:42;;;;;;;;;19.50;18.75;;;;;2.04;82.44;102434.06;5049842;28;11710;-66
2023/01/26 04:49:11;;;;;;;;;20.25;19.50;;;;;2.08;82.47;102435.56;5043396;28;11663;-63
2023/01/26 04:51:38;;;;;;;;;32.00;27.50;;;;;2.07;82.74;102437.38;5049494;28;11547;-67
2023/01/26 04:54:05;;;;;;;;;24.25;22.00;;;;;2.09;82.57;102426.66;5050054;28;11134;-66
2023/01/26 04:56:35;;;;;;;;;36.00;29.75;;;;;2.08;82.28;102427.59;5049032;28;12277;-65
2023/01/26 04:59:04;;;;;;;;;34.25;29.25;;;;;2.06;82.28;102425.03;5044694;28;11618;-65
2023/01/26 05:01:32;;;;;;;;;34.75;26.75;;;;;2.05;82.62;102426.00;5041265;28;11556;-65
2023/01/26 05:04:02;;;;;;;;;29.25;24.75;;;;;2.09;82.63;102431.97;5029292;28;11699;-66
2023/01/26 05:06:32;;;;;;;;;32.00;25.25;;;;;2.11;82.39;102440.69;5033127;28;11546;-64
2023/01/26 05:08:58;;;;;;;;;23.25;22.00;;;;;2.14;82.75;102436.00;5060675;28;11545;-64
2023/01/26 05:11:26;;;;;;;;;30.00;27.00;;;;;2.16;83.01;102435.94;5049305;28;11534;-64
2023/01/26 05:14:15;;;;;;;;;23.75;21.75;;;;;2.15;82.54;102421.78;5029330;28;11528;-64
2023/01/26 05:16:54;;;;;;;;;29.50;22.25;;;;;2.19;83.02;102431.28;5034336;28;11555;-69
2023/01/26 05:19:44;;;;;;;;;27.25;24.00;;;;;2.21;82.55;102434.66;5065857;28;11611;-66
2023/01/26 05:22:28;;;;;;;;;23.75;21.50;;;;;2.24;82.68;102433.63;5048404;28;11564;-67
2023/01/26 05:25:13;;;;;;;;;26.50;23.25;;;;;2.25;82.71;102424.69;5050391;28;11527;-68
2023/01/26 05:27:51;;;;;;;;;26.50;20.75;;;;;2.25;82.75;102429.16;5035591;28;12315;-68
2023/01/26 05:30:18;;;;;;;;;35.00;25.25;;;;;2.27;82.71;102433.44;5044447;28;11530;-67
2023/01/26 05:32:45;;;;;;;;;32.25;25.25;;;;;2.28;82.55;102428.97;5048954;28;11542;-67
2023/01/26 05:35:13;;;;;;;;;26.75;20.00;;;;;2.31;82.60;102444.66;5044488;28;12349;-65
2023/01/26 05:37:44;;;;;;;;;26.50;23.50;;;;;2.32;82.30;102441.94;5043285;28;11620;-66
2023/01/26 05:40:12;;;;;;;;;31.75;25.25;;;;;2.34;82.63;102441.81;5048523;28;11557;-69
2023/01/26 05:42:41;;;;;;;;;24.50;22.00;;;;;2.35;82.51;102444.41;5048523;28;11683;-66
2023/01/26 05:45:34;;;;;;;;;28.50;25.50;;;;;2.36;82.58;102443.44;5047009;28;11528;-66
2023/01/26 05:48:01;;;;;;;;;22.75;19.25;;;;;2.37;82.71;102439.81;5036161;28;11601;-67
2023/01/26 05:50:29;;;;;;;;;32.50;27.75;;;;;2.40;82.98;102441.44;5048186;28;11567;-67
2023/01/26 05:53:14;;;;;;;;;30.25;21.00;;;;;2.42;82.60;102451.00;5054029;28;11538;-67
2023/01/26 05:55:42;;;;;;;;;30.75;22.50;;;;;2.42;82.50;102451.00;5047577;28;11542;-67
2023/01/26 05:58:09;;;;;;;;;22.75;21.25;;;;;2.44;82.85;102442.94;5050602;28;11641;-66
2023/01/26 06:00:37;;;;;;;;;18.25;18.25;;;;;2.53;83.06;102449.44;5038229;28;11531;-67
2023/01/26 06:03:08;;;;;;;;;22.25;17.50;;;;;2.56;82.93;102455.41;5032676;28;11544;-66
2023/01/26 06:05:37;;;;;;;;;26.75;21.50;;;;;2.59;83.30;102451.66;5049158;28;11538;-67
2023/01/26 06:08:12;;;;;;;;;16.00;12.50;;;;;2.70;83.77;102460.63;5044724;28;11521;-67
2023/01/26 06:11:03;;;;;;;;;15.75;13.00;;;;;2.84;83.89;102456.22;5041609;28;12250;-67
2023/01/26 06:13:48;;;;;;;;;13.25;10.50;;;;;2.95;84.08;102464.28;5032430;28;11530;-67
2023/01/26 06:16:22;;;;;;;;;7.25;7.25;;;;;3.05;84.24;102454.72;5037028;28;11508;-67
2023/01/26 06:18:49;;;;;;;;;10.50;8.50;;;;;3.14;84.22;102458.56;5050898;28;11477;-67
2023/01/26 06:21:16;;;;;;;;;10.50;8.00;;;;;3.17;83.98;102458.34;5051800;28;11470;-68
2023/01/26 06:23:43;;;;;;;;;7.75;5.00;;;;;3.22;84.22;102464.22;5040527;28;11546;-67
2023/01/26 06:26:10;;;;;;;;;13.50;4.75;;;;;3.26;84.51;102464.84;5041335;28;11476;-68
2023/01/26 06:28:37;;;;;;;;;8.00;4.00;;;;;3.32;84.54;102467.06;5032336;28;11415;-68
2023/01/26 06:31:07;;;;;;;;;3.00;3.00;;;;;3.37;84.77;102478.25;5032256;28;12199;-68
2023/01/26 06:33:35;;;;;;;;;2.50;2.00;;;;;3.50;85.00;102478.25;5038223;28;11449;-66
2023/01/26 06:36:08;;;;;;;;;7.75;5.00;;;;;3.51;84.93;102477.28;5045165;28;11419;-67
2023/01/26 06:38:36;;;;;;;;;4.25;1.50;;;;;3.52;84.58;102477.16;5051371;28;11580;-67
2023/01/26 06:41:04;;;;;;;;;2.00;2.00;;;;;3.54;85.13;102477.94;5052128;28;11404;-67
2023/01/26 06:43:33;;;;;;;;;4.75;1.00;;;;;3.58;85.46;102475.91;5045980;28;11433;-68
2023/01/26 06:46:00;;;;;;;;;6.25;3.00;;;;;3.57;85.11;102477.72;5043480;28;12091;-67
2023/01/26 06:48:29;;;;;;;;;1.00;1.00;;;;;3.62;85.12;102485.38;5051918;28;11421;-68
2023/01/26 06:51:03;;;;;;;;;1.00;1.00;;;;;3.66;85.50;102481.53;5051517;28;11526;-66
2023/01/26 06:53:38;;;;;;;;;0.50;0.00;;;;;3.67;85.26;102489.41;5043360;28;11453;-67
2023/01/26 06:56:15;;;;;;;;;4.25;1.00;;;;;3.69;85.52;102487.50;5047333;28;11422;-66
2023/01/26 06:59:09;;;;;;;;;3.50;3.00;;;;;3.66;86.04;102494.84;5040596;28;12168;-67
2023/01/26 07:01:48;;;;;;;;;2.75;1.00;;;;;3.72;86.08;102497.06;5051029;28;11510;-67
2023/01/26 07:04:15;;;;;;;;;6.00;2.00;;;;;3.72;86.18;102497.06;5046565;28;11457;-67
2023/01/26 07:06:42;;;;;;;;;1.00;1.00;;;;;3.76;86.07;102501.22;5040575;28;11507;-66
2023/01/26 07:09:09;;;;;;;;;3.50;1.00;;;;;3.74;85.72;102505.81;5051330;28;11515;-67
2023/01/26 07:11:36;;;;;;;;;2.75;1.50;;;;;3.80;85.85;102509.84;5049785;28;11537;-67
2023/01/26 07:14:02;;;;;;;;;2.00;1.00;;;;;3.81;86.16;102512.41;5047942;28;11552;-67
2023/01/26 07:16:29;;;;;;;;;2.50;0.75;;;;;3.82;86.40;102519.44;5052863;28;11405;-68
2023/01/26 07:18:58;;;;;;;;;2.75;1.75;;;;;3.82;86.37;102506.13;5036171;28;11417;-67
2023/01/26 07:21:25;;;;;;;;;2.00;1.00;;;;;3.83;86.24;102512.28;5032514;28;11569;-68
2023/01/26 07:23:52;;;;;;;;;1.75;0.75;;;;;3.83;86.12;102510.47;5044530;28;11407;-67
2023/01/26 07:26:20;;;;;;;;;2.00;1.00;;;;;3.80;86.29;102516.00;5052279;28;12134;-68
2023/01/26 07:28:46;;;;;;;;;4.50;1.75;;;;;3.80;86.53;102521.34;5035904;28;11429;-67
2023/01/26 07:31:13;;;;;;;;;2.00;1.75;;;;;3.85;86.73;102527.22;5032461;28;11441;-67
2023/01/26 07:33:39;;;;;;;;;4.00;2.00;;;;;3.88;86.54;102532.31;5032217;28;11474;-67
2023/01/26 07:36:06;;;;;;;;;1.50;1.00;;;;;3.88;86.39;102524.31;5031978;28;11402;-68
2023/01/26 07:38:33;;;;;;;;;1.25;0.50;;;;;3.89;86.29;102531.38;5047886;28;11419;-68
2023/01/26 07:41:05;;;;;;;;;4.50;3.00;;;;;3.89;86.18;102526.03;5052257;28;11428;-68
2023/01/26 07:43:33;;;;;;;;;1.50;1.00;;;;;3.90;86.56;102540.19;5056203;28;11417;-67
2023/01/26 07:45:59;;;;;;;;;0.00;0.00;;;;;3.91;86.69;102534.75;5045171;28;11413;-68
2023/01/26 07:48:28;;;;;;;;;0.00;0.00;;;;;3.92;86.29;102543.59;5040410;28;11535;-67
2023/01/26 07:50:58;;;;;;;;;1.00;1.00;;;;;3.90;86.21;102543.72;5051853;28;11631;-67
2023/01/26 07:53:27;;;;;;;;;7.00;2.00;;;;;3.87;86.11;102543.06;5044236;28;11542;-67
2023/01/26 07:56:04;;;;;;;;;2.00;1.00;;;;;3.88;86.45;102544.78;5031480;28;11423;-67
2023/01/26 07:58:31;;;;;;;;;10.75;4.75;;;;;3.89;86.53;102558.00;5032144;28;11456;-68
2023/01/26 08:01:09;;;;;;;;;1.75;0.00;;;;;3.91;86.01;102544.56;5032169;28;11467;-65
2023/01/26 08:03:36;;;;;;;;;4.00;2.00;;;;;3.91;86.21;102553.41;5031820;28;11553;-67
2023/01/26 08:06:03;;;;;;;;;1.25;0.00;;;;;3.93;86.43;102563.97;5031423;28;11400;-66
2023/01/26 08:08:30;;;;;;;;;3.00;0.50;;;;;3.95;85.97;102556.69;5041525;28;11405;-68
2023/01/26 08:10:57;;;;;;;;;1.25;0.75;;;;;3.95;85.95;102560.22;5049172;28;11409;-68
2023/01/26 08:13:24;;;;;;;;;1.00;1.00;;;;;3.95;86.37;102557.56;5051289;28;11418;-67
2023/01/26 08:16:05;;;;;;;;;4.25;1.00;;;;;3.93;85.93;102564.81;5050312;28;11451;-68
2023/01/26 08:18:31;;;;;;;;;4.00;1.75;;;;;3.97;85.78;102557.47;5051398;28;11554;-68
2023/01/26 08:20:59;;;;;;;;;1.00;1.00;;;;;3.97;86.21;102557.47;5049347;28;11430;-66
2023/01/26 08:23:26;;;;;;;;;2.00;1.00;;;;;4.01;85.78;102560.72;5039210;28;11418;-66
2023/01/26 08:25:52;;;;;;;;;3.25;2.00;;;;;4.03;85.71;102565.00;5051091;28;11506;-67
2023/01/26 08:28:19;;;;;;;;;2.50;1.00;;;;;4.03;85.91;102566.81;5047408;28;11544;-68
2023/01/26 08:30:46;;;;;;;;;3.00;3.00;;;;;4.03;86.19;102572.16;5038534;28;12208;-66
2023/01/26 08:33:13;;;;;;;;;2.25;2.25;;;;;4.05;85.84;102572.88;5036094;28;11433;-67
2023/01/26 08:35:39;;;;;;;;;2.00;2.00;;;;;4.02;86.30;102576.63;5031127;28;11477;-68
2023/01/26 08:38:06;;;;;;;;;1.75;1.00;;;;;4.04;86.11;102588.00;5046542;28;11406;-67
2023/01/26 08:40:32;;;;;;;;;1.50;1.50;;;;;4.08;86.28;102581.50;5030990;28;11448;-66
2023/01/26 08:43:01;;;;;;;;;7.50;4.00;;;;;4.06;86.48;102587.94;5033205;28;12154;-66
2023/01/26 08:45:28;;;;;;;;;1.50;1.00;;;;;4.13;86.98;102581.19;5032853;28;11554;-67
2023/01/26 08:47:57;;;;;;;;;1.00;1.00;;;;;4.22;86.93;102585.88;5033609;28;11440;-67
2023/01/26 08:50:24;;;;;;;;;4.00;2.00;;;;;4.24;86.63;102591.09;5031300;28;11372;-67
2023/01/26 08:52:51;;;;;;;;;1.50;1.50;;;;;4.33;86.95;102599.25;5044923;28;11496;-66
2023/01/26 08:55:17;;;;;;;;;1.00;0.00;;;;;4.39;86.75;102601.50;5031191;28;11445;-68
2023/01/26 08:57:45;;;;;;;;;2.00;1.50;;;;;4.42;86.53;102593.28;5050677;28;11391;-67
2023/01/26 09:00:13;;;;;;;;;0.50;0.50;;;;;4.49;86.58;102592.81;5050696;28;11409;-68
2023/01/26 09:02:39;;;;;;;;;6.50;2.50;;;;;4.43;86.09;102592.31;5050326;28;11499;-68
2023/01/26 09:05:07;;;;;;;;;3.00;2.50;;;;;4.44;86.28;102607.34;5050367;28;11962;-68
2023/01/26 09:07:33;;;;;;;;;0.00;0.00;;;;;4.47;85.87;102601.78;5050636;28;11509;-68
2023/01/26 09:09:59;;;;;;;;;4.50;3.50;;;;;4.51;86.09;102609.59;5043060;28;11290;-68
2023/01/26 09:12:26;;;;;;;;;4.25;4.25;;;;;4.49;85.90;102600.81;5033397;28;11448;-67
2023/01/26 09:14:52;;;;;;;;;0.50;0.00;;;;;4.49;85.98;102609.66;5030317;28;11479;-67
2023/01/26 09:17:19;;;;;;;;;1.00;1.00;;;;;4.56;86.09;102607.44;5030643;28;11537;-68
2023/01/26 09:19:45;;;;;;;;;4.50;3.00;;;;;4.57;85.54;102609.13;5032856;28;11505;-68
2023/01/26 09:22:12;;;;;;;;;2.00;2.00;;;;;4.65;86.54;102609.41;5030335;28;11492;-69
2023/01/26 09:24:38;;;;;;;;;4.50;2.00;;;;;4.75;86.07;102606.94;5030306;28;12173;-66
2023/01/26 09:27:05;;;;;;;;;1.00;1.00;;;;;4.84;86.43;102604.44;5031594;28;11553;-67
2023/01/26 09:29:31;;;;;;;;;2.00;2.00;;;;;4.90;85.97;102609.34;5030629;28;11065;-66
2023/01/26 09:31:57;;;;;;;;;6.00;2.00;;;;;5.04;86.17;102610.97;5049781;28;11112;-69
2023/01/26 09:34:24;;;;;;;;;3.00;3.00;;;;;5.14;85.25;102609.28;5049985;28;11082;-66
2023/01/26 09:36:50;;;;;;;;;2.00;2.00;;;;;5.25;85.59;102615.66;5049161;28;11125;-66
2023/01/26 09:39:17;;;;;;;;;1.00;1.00;;;;;5.34;85.00;102609.59;5049706;28;11809;-67
2023/01/26 09:42:13;;;;;;;;;1.50;1.00;;;;;5.41;84.64;102597.50;5048517;28;11008;-67
2023/01/26 09:44:50;;;;;;;;;4.75;2.50;;;;;5.44;84.34;102615.97;5049814;28;11209;-67
2023/01/26 09:47:30;;;;;;;;;5.00;4.00;;;;;5.51;84.90;102610.97;5049844;28;11588;-66
2023/01/26 09:50:09;;;;;;;;;6.50;2.50;;;;;5.50;84.14;102606.63;5033094;28;10974;-67
2023/01/26 09:52:47;;;;;;;;;4.50;1.25;;;;;5.54;84.20;102613.44;5028736;28;10957;-66
2023/01/26 09:55:18;;;;;;;;;4.75;4.75;;;;;5.58;83.96;102604.22;5029784;28;10884;-67
2023/01/26 09:58:04;;;;;;;;;6.75;1.00;;;;;5.62;83.86;102614.53;5031510;28;10932;-66
2023/01/26 10:00:43;;;;;;;;;5.25;5.25;;;;;5.61;83.92;102620.00;5030196;28;11307;-66
2023/01/26 10:03:38;;;;;;;;;5.50;5.50;;;;;5.64;83.75;102615.28;5035290;28;11079;-67
2023/01/26 10:06:27;;;;;;;;;1.50;1.25;;;;;5.68;83.76;102618.56;5049813;28;11180;-67
2023/01/26 10:09:28;;;;;;;;;8.00;4.00;;;;;5.75;83.88;102621.59;5046480;28;11023;-68
2023/01/26 10:11:59;;;;;;;;;7.00;3.50;;;;;5.79;83.79;102617.72;5049659;28;11052;-68
2023/01/26 10:14:39;;;;;;;;;0.00;0.00;;;;;5.84;83.88;102616.41;5040026;28;10973;-67
2023/01/26 10:17:15;;;;;;;;;4.00;1.00;;;;;5.87;84.06;102610.81;5033853;28;10951;-68
2023/01/26 10:19:51;;;;;;;;;2.25;1.25;;;;;5.90;83.40;102613.25;5034002;28;10942;-67
2023/01/26 10:22:42;;;;;;;;;1.25;1.00;;;;;5.99;83.41;102617.03;5049725;28;11002;-67
2023/01/26 10:25:26;;;;;;;;;4.00;1.50;;;;;6.00;83.23;102609.91;5049492;28;11661;-67
2023/01/26 10:27:53;;;;;;;;;3.50;1.25;;;;;6.02;82.83;102610.63;5049710;28;11005;-68
2023/01/26 10:30:20;;;;;;;;;0.75;0.75;;;;;6.07;82.76;102619.97;5037630;28;10969;-67
2023/01/26 10:32:50;;;;;;;;;1.25;1.00;;;;;6.10;82.56;102621.56;5029802;28;10651;-68
2023/01/26 10:35:22;;;;;;;;;5.50;4.00;;;;;6.11;82.16;102629.44;5032882;28;10788;-68
2023/01/26 10:37:51;;;;;;;;;2.00;2.00;;;;;6.10;82.14;102633.09;5035645;28;10712;-68
2023/01/26 10:40:19;;;;;;;;;5.50;1.25;;;;;6.14;82.11;102628.34;5052087;28;10879;-66
2023/01/26 10:42:57;;;;;;;;;1.00;1.00;;;;;6.14;81.81;102636.38;5053197;28;10848;-67
2023/01/26 10:45:32;;;;;;;;;1.00;1.00;;;;;6.06;82.70;102634.31;5053041;28;10791;-67
2023/01/26 10:48:19;;;;;;;;;2.00;1.75;;;;;6.16;82.20;102642.47;5051393;28;10876;-67
2023/01/26 10:50:46;;;;;;;;;4.25;2.00;;;;;6.22;82.44;102641.13;5053107;28;10818;-67
2023/01/26 10:53:27;;;;;;;;;6.00;3.00;;;;;6.20;82.81;102643.94;5052986;28;10734;-67
2023/01/26 10:56:00;;;;;;;;;3.00;3.00;;;;;6.14;82.46;102639.91;5053212;28;10715;-68
2023/01/26 10:58:41;;;;;;;;;3.25;1.25;;;;;6.18;82.67;102629.81;5049293;28;10769;-67
2023/01/26 11:01:14;;;;;;;;;4.25;2.00;;;;;6.17;83.49;102638.81;5048179;28;11510;-68
2023/01/26 11:03:42;;;;;;;;;3.50;2.00;;;;;6.24;83.58;102632.03;5034312;28;10830;-67
2023/01/26 11:06:16;;;;;;;;;5.25;3.50;;;;;6.31;82.99;102624.34;5032913;28;10734;-66
2023/01/26 11:08:43;;;;;;;;;1.00;1.00;;;;;6.46;82.86;102624.94;5036641;28;10782;-67
2023/01/26 11:11:26;;;;;;;;;5.25;1.00;;;;;6.58;82.17;102616.78;5032966;28;10661;-67
2023/01/26 11:14:15;;;;;;;;;2.50;1.25;;;;;6.55;82.22;102622.38;5032818;28;10809;-67
2023/01/26 11:17:00;;;;;;;;;2.00;2.00;;;;;6.57;82.43;102624.94;5045716;28;11433;-66
2023/01/26 11:19:49;;;;;;;;;5.00;1.00;;;;;6.66;82.13;102625.03;5038081;28;10809;-65
2023/01/26 11:22:31;;;;;;;;;3.50;1.00;;;;;6.54;82.68;102625.19;5032744;28;10692;-66
2023/01/26 11:25:20;;;;;;;;;2.00;2.00;;;;;6.72;82.14;102625.50;5032620;28;10857;-66
2023/01/26 11:28:13;;;;;;;;;1.25;0.25;;;;;6.87;81.64;102626.91;5032920;28;10628;-66
2023/01/26 11:31:05;;;;;;;;;2.75;1.00;;;;;6.88;81.54;102640.16;5024350;28;10626;-66
2023/01/26 11:34:01;;;;;;;;;3.50;2.25;;;;;6.84;81.28;102625.34;5052117;28;10657;-66
2023/01/26 11:37:05;;;;;;;;;4.75;2.00;;;;;6.79;81.05;102619.53;5032464;28;10635;-66
2023/01/26 11:39:55;;;;;;;;;1.25;1.00;;;;;6.77;81.35;102623.31;5041287;28;11353;-66
2023/01/26 11:42:37;;;;;;;;;2.00;0.75;;;;;6.81;81.55;102620.25;5049663;28;10798;-65
2023/01/26 11:45:37;;;;;;;;;3.50;1.25;;;;;6.82;81.32;102615.75;5034425;28;10721;-66
2023/01/26 11:48:41;;;;;;;;;2.00;1.00;;;;;6.88;81.74;102621.44;5032016;28;10844;-67
2023/01/26 11:51:29;;;;;;;;;0.75;0.75;;;;;6.92;81.41;102620.19;5031804;28;10578;-66
2023/01/26 11:54:37;;;;;;;;;1.75;1.00;;;;;6.89;81.26;102616.94;5041327;28;10565;-68
2023/01/26 11:57:46;;;;;;;;;2.00;1.00;;;;;6.82;81.88;102621.94;5051903;28;10862;-67
2023/01/26 12:00:18;;;;;;;;;3.50;2.50;;;;;6.69;81.71;102610.56;5051507;28;10652;-65
2023/01/26 12:03:05;;;;;;;;;2.50;2.50;;;;;6.64;82.02;102621.66;5051239;28;10720;-67
2023/01/26 12:05:50;;;;;;;;;1.00;1.00;;;;;6.71;81.90;102615.78;5051484;28;10748;-65
2023/01/26 12:08:37;;;;;;;;;3.50;1.75;;;;;6.73;82.25;102611.16;5050679;28;10650;-65
2023/01/26 12:11:24;;;;;;;;;2.00;1.00;;;;;6.69;82.27;102607.88;5051647;28;10674;-64
2023/01/26 12:14:09;;;;;;;;;1.75;1.00;;;;;6.72;82.33;102602.25;5040661;28;10576;-67
2023/01/26 12:16:42;;;;;;;;;7.00;1.50;;;;;6.76;81.60;102603.69;5041840;28;10557;-67
2023/01/26 12:19:20;;;;;;;;;2.00;1.00;;;;;6.72;81.93;102594.22;5031908;28;10679;-64
2023/01/26 12:21:48;;;;;;;;;0.00;0.00;;;;;6.73;81.85;102601.31;5031422;28;10511;-65
2023/01/26 12:24:26;;;;;;;;;1.25;1.25;;;;;6.73;81.95;102587.91;5044146;28;10497;-65
2023/01/26 12:27:24;;;;;;;;;2.50;2.00;;;;;6.75;81.22;102580.59;5044609;28;10726;-67
2023/01/26 12:30:00;;;;;;;;;0.50;0.50;;;;;6.77;81.98;102573.31;5031503;28;10581;-66
2023/01/26 12:32:27;;;;;;;;;2.00;1.75;;;;;6.78;81.55;102568.81;5031411;28;10525;-65
2023/01/26 12:34:54;;;;;;;;;0.25;0.00;;;;;6.83;81.15;102566.59;5033847;28;11442;-65
2023/01/26 12:37:50;;;;;;;;;1.25;0.50;;;;;6.87;80.81;102560.84;5045629;28;10737;-66